createdAt,value
2023-03-26T00:01:26.382Z,94057.34
2023-03-26T00:03:53.887Z,94065.63
2023-03-26T00:06:22.736Z,94049.63
2023-03-26T00:08:49.935Z,94054.81
2023-03-26T00:11:17.760Z,94066.78
2023-03-26T00:13:46.228Z,94056.59
2023-03-26T00:16:19.701Z,94060.69
2023-03-26T00:18:46.938Z,94065.50
2023-03-26T00:21:15.536Z,94063.31
2023-03-26T00:23:42.342Z,94057.91
2023-03-26T00:26:10.668Z,94053.66
2023-03-26T00:28:38.935Z,94054.44
2023-03-26T00:31:06.657Z,94052.97
2023-03-26T00:33:33.889Z,94051.38
2023-03-26T00:36:04.391Z,94050.00
2023-03-26T00:38:32.413Z,94069.81
2023-03-26T00:41:01.175Z,94074.06
2023-03-26T00:43:28.618Z,94082.34
2023-03-26T00:45:56.121Z,94082.66
2023-03-26T00:48:31.553Z,94062.41
2023-03-26T00:51:05.673Z,94057.22
2023-03-26T00:53:33.484Z,94055.25
2023-03-26T00:56:00.559Z,94054.91
2023-03-26T00:58:28.344Z,94052.66
2023-03-26T01:01:05.267Z,94055.16
2023-03-26T01:03:33.150Z,94058.03
2023-03-26T01:06:04.153Z,94045.31
2023-03-26T01:08:41.866Z,94030.75
2023-03-26T01:11:16.625Z,94021.84
2023-03-26T01:13:48.751Z,94025.94
2023-03-26T01:16:29.936Z,94027.50
2023-03-26T01:18:57.074Z,94004.94
2023-03-26T01:21:28.207Z,94001.53
2023-03-26T01:24:12.913Z,93991.09
2023-03-26T01:27:01.181Z,93968.75
2023-03-26T01:29:55.913Z,93954.59
2023-03-26T01:32:33.251Z,93959.88
2023-03-26T01:35:35.474Z,93958.28
2023-03-26T01:38:31.876Z,93955.34
2023-03-26T01:41:09.329Z,93959.88
2023-03-26T01:43:48.046Z,93960.63
2023-03-26T01:46:15.727Z,93958.16
2023-03-26T01:48:52.166Z,93952.13
2023-03-26T01:51:30.591Z,93954.59
2023-03-26T01:54:01.368Z,93942.75
2023-03-26T01:57:02.990Z,93923.22
2023-03-26T01:59:36.859Z,93921.34
2023-03-26T02:02:13.476Z,93904.81
2023-03-26T02:05:00.880Z,93902.81
2023-03-26T02:07:42.179Z,93909.69
2023-03-26T02:10:21.166Z,93913.19
2023-03-26T02:12:55.150Z,93905.13
2023-03-26T02:15:22.656Z,93902.13
2023-03-26T02:17:53.227Z,93909.63
2023-03-26T02:20:22.790Z,93902.81
2023-03-26T02:22:50.444Z,93897.41
2023-03-26T02:25:18.686Z,93893.88
2023-03-26T02:27:46.931Z,93889.69
2023-03-26T02:30:20.962Z,93889.41
2023-03-26T02:32:48.354Z,93884.88
2023-03-26T02:35:15.911Z,93868.78
2023-03-26T02:37:42.903Z,93874.66
2023-03-26T02:40:10.990Z,93876.69
2023-03-26T02:42:37.970Z,93861.25
2023-03-26T02:45:07.106Z,93864.44
2023-03-26T02:47:34.606Z,93861.75
2023-03-26T02:50:01.359Z,93855.34
2023-03-26T02:52:28.552Z,93856.88
2023-03-26T02:54:56.899Z,93850.16
2023-03-26T02:57:24.135Z,93843.88
2023-03-26T02:59:53.706Z,93841.56
2023-03-26T03:02:20.690Z,93847.56
2023-03-26T03:04:48.537Z,93835.22
2023-03-26T03:07:18.239Z,93834.94
2023-03-26T03:09:46.377Z,93825.09
2023-03-26T03:12:16.197Z,93822.22
2023-03-26T03:14:43.238Z,93816.34
2023-03-26T03:17:10.298Z,93823.47
2023-03-26T03:19:37.505Z,93809.81
2023-03-26T03:22:06.941Z,93814.72
2023-03-26T03:24:34.735Z,93807.50
2023-03-26T03:27:01.517Z,93790.44
2023-03-26T03:29:29.378Z,93783.88
2023-03-26T03:31:56.220Z,93790.06
2023-03-26T03:34:23.238Z,93784.75
2023-03-26T03:36:50.343Z,93789.84
2023-03-26T03:39:17.029Z,93780.00
2023-03-26T03:41:44.066Z,93790.13
2023-03-26T03:44:10.819Z,93782.56
2023-03-26T03:46:37.649Z,93777.16
2023-03-26T03:49:05.486Z,93773.38
2023-03-26T03:51:32.469Z,93766.16
2023-03-26T03:54:00.359Z,93763.25
2023-03-26T03:56:28.445Z,93758.25
2023-03-26T03:58:55.115Z,93757.56
2023-03-26T04:01:22.171Z,93758.16
2023-03-26T04:03:49.377Z,93751.69
2023-03-26T04:06:16.305Z,93745.44
2023-03-26T04:08:46.205Z,93751.03
2023-03-26T04:11:13.996Z,93739.19
2023-03-26T04:13:41.152Z,93749.47
2023-03-26T04:16:08.248Z,93750.44
2023-03-26T04:18:35.462Z,93741.44
2023-03-26T04:21:02.224Z,93742.69
2023-03-26T04:23:28.948Z,93734.69
2023-03-26T04:25:56.056Z,93746.00
2023-03-26T04:28:31.290Z,93731.78
2023-03-26T04:30:59.262Z,93732.22
2023-03-26T04:33:29.937Z,93730.91
2023-03-26T04:35:57.267Z,93738.81
2023-03-26T04:38:24.601Z,93740.28
2023-03-26T04:40:54.107Z,93727.38
2023-03-26T04:43:21.232Z,93729.13
2023-03-26T04:45:51.029Z,93720.13
2023-03-26T04:48:18.176Z,93711.78
2023-03-26T04:50:44.862Z,93708.34
2023-03-26T04:53:15.904Z,93713.75
2023-03-26T04:55:47.430Z,93719.34
2023-03-26T04:58:14.881Z,93721.69
2023-03-26T05:00:41.858Z,93714.50
2023-03-26T05:03:13.304Z,93716.94
2023-03-26T05:05:40.116Z,93716.72
2023-03-26T05:08:07.235Z,93701.25
2023-03-26T05:10:36.729Z,93716.28
2023-03-26T05:13:03.493Z,93726.84
2023-03-26T05:15:31.457Z,93720.19
2023-03-26T05:18:01.151Z,93723.66
2023-03-26T05:20:28.775Z,93733.28
2023-03-26T05:22:55.813Z,93722.44
2023-03-26T05:25:25.592Z,93718.56
2023-03-26T05:27:52.824Z,93704.91
2023-03-26T05:30:21.720Z,93688.44
2023-03-26T05:32:51.446Z,93664.16
2023-03-26T05:35:18.908Z,93664.09
2023-03-26T05:37:46.188Z,93657.44
2023-03-26T05:40:13.863Z,93654.22
2023-03-26T05:42:40.906Z,93667.63
2023-03-26T05:45:10.868Z,93661.09
2023-03-26T05:47:39.500Z,93652.69
2023-03-26T05:50:09.504Z,93653.22
2023-03-26T05:52:36.268Z,93653.50
2023-03-26T05:55:02.965Z,93655.38
2023-03-26T05:57:30.732Z,93651.31
2023-03-26T05:59:57.826Z,93653.16
2023-03-26T06:02:24.597Z,93660.19
2023-03-26T06:04:52.778Z,93664.28
2023-03-26T06:07:22.594Z,93686.69
2023-03-26T06:09:49.681Z,93685.06
2023-03-26T06:12:16.434Z,93681.97
2023-03-26T06:14:43.478Z,93703.34
2023-03-26T06:17:10.466Z,93689.28
2023-03-26T06:19:37.623Z,93707.59
2023-03-26T06:22:04.704Z,93708.81
2023-03-26T06:24:31.708Z,93706.22
2023-03-26T06:26:58.809Z,93707.59
2023-03-26T06:29:26.300Z,93690.16
2023-03-26T06:31:53.052Z,93678.34
2023-03-26T06:34:19.762Z,93674.75
2023-03-26T06:36:46.951Z,93689.69
2023-03-26T06:39:14.213Z,93680.06
2023-03-26T06:41:41.548Z,93676.22
2023-03-26T06:44:08.587Z,93679.88
2023-03-26T06:46:35.342Z,93674.59
2023-03-26T06:49:02.136Z,93667.72
2023-03-26T06:51:28.885Z,93656.66
2023-03-26T06:53:57.267Z,93650.38
2023-03-26T06:56:25.356Z,93647.03
2023-03-26T06:58:52.409Z,93648.09
2023-03-26T07:01:19.228Z,93658.09
2023-03-26T07:03:46.384Z,93651.75
2023-03-26T07:06:13.631Z,93660.97
2023-03-26T07:08:40.779Z,93665.59
2023-03-26T07:11:07.543Z,93648.84
2023-03-26T07:13:34.274Z,93658.50
2023-03-26T07:16:01.090Z,93650.63
2023-03-26T07:18:28.221Z,93656.19
2023-03-26T07:20:55.434Z,93648.69
2023-03-26T07:23:23.301Z,93654.84
2023-03-26T07:25:50.324Z,93644.56
2023-03-26T07:28:34.851Z,93630.22
2023-03-26T07:31:23.265Z,93613.47
2023-03-26T07:34:00.928Z,93613.63
2023-03-26T07:36:36.521Z,93626.63
2023-03-26T07:39:38.549Z,93634.63
2023-03-26T07:42:24.117Z,93638.41
2023-03-26T07:45:02.797Z,93624.31
2023-03-26T07:47:33.808Z,93624.00
2023-03-26T07:50:00.867Z,93652.09
2023-03-26T07:52:27.908Z,93658.28
2023-03-26T07:54:55.304Z,93666.16
2023-03-26T07:57:32.184Z,93681.59
2023-03-26T08:00:16.651Z,93674.66
2023-03-26T08:03:07.657Z,93682.06
2023-03-26T08:06:03.501Z,93660.00
2023-03-26T08:09:12.445Z,93621.09
2023-03-26T08:11:53.697Z,93618.19
2023-03-26T08:15:10.382Z,93612.47
2023-03-26T08:18:01.928Z,93639.00
2023-03-26T08:20:40.962Z,93653.91
2023-03-26T08:23:33.164Z,93659.47
2023-03-26T08:26:46.055Z,93627.22
2023-03-26T08:29:53.836Z,93621.97
2023-03-26T08:32:41.892Z,93647.53
2023-03-26T08:35:28.629Z,93658.03
2023-03-26T08:38:08.697Z,93669.34
2023-03-26T08:41:11.402Z,93668.88
2023-03-26T08:44:26.276Z,93656.53
2023-03-26T08:48:01.917Z,93658.66
2023-03-26T08:51:21.079Z,93658.84
2023-03-26T08:53:59.683Z,93658.16
2023-03-26T08:57:01.592Z,93654.50
2023-03-26T08:59:49.082Z,93653.53
2023-03-26T09:03:04.264Z,93643.50
2023-03-26T09:05:51.175Z,93656.47
2023-03-26T09:08:54.300Z,93660.97
2023-03-26T09:11:36.729Z,93653.47
2023-03-26T09:14:40.609Z,93652.31
2023-03-26T09:17:29.511Z,93646.34
2023-03-26T09:20:28.138Z,93650.41
2023-03-26T09:23:29.503Z,93646.00
2023-03-26T09:26:27.181Z,93644.31
2023-03-26T09:29:12.347Z,93643.22
2023-03-26T09:32:17.644Z,93632.84
2023-03-26T09:35:39.469Z,93639.44
2023-03-26T09:38:21.330Z,93622.06
2023-03-26T09:41:01.796Z,93628.41
2023-03-26T09:43:56.181Z,93622.06
2023-03-26T09:46:41.440Z,93612.75
2023-03-26T09:49:27.874Z,93606.91
2023-03-26T09:52:16.909Z,93596.53
2023-03-26T09:55:00.379Z,93588.81
2023-03-26T09:58:04.220Z,93588.63
2023-03-26T10:01:09.265Z,93606.34
2023-03-26T10:03:59.947Z,93622.91
2023-03-26T10:06:45.820Z,93612.63
2023-03-26T10:09:39.798Z,93592.28
2023-03-26T10:12:28.156Z,93613.94
2023-03-26T10:15:40.788Z,93622.06
2023-03-26T10:18:27.938Z,93621.66
2023-03-26T10:21:47.455Z,93616.63
2023-03-26T10:32:46.011Z,93617.13
2023-03-26T10:35:39.641Z,93632.63
2023-03-26T10:38:47.257Z,93652.41
2023-03-26T10:41:17.453Z,93642.94
2023-03-26T10:44:09.086Z,93639.94
2023-03-26T10:47:06.751Z,93640.94
2023-03-26T10:50:04.249Z,93643.69
2023-03-26T10:52:38.391Z,93645.03
2023-03-26T10:55:16.478Z,93651.88
2023-03-26T10:58:08.352Z,93645.88
2023-03-26T11:00:41.284Z,93657.66
2023-03-26T11:04:01.360Z,93646.81
2023-03-26T11:06:41.338Z,93634.91
2023-03-26T11:09:25.571Z,93624.63
2023-03-26T11:12:31.524Z,93622.22
2023-03-26T11:15:13.362Z,93630.56
2023-03-26T11:18:01.210Z,93628.03
2023-03-26T11:20:49.591Z,93624.00
2023-03-26T11:23:35.514Z,93629.66
2023-03-26T11:26:08.974Z,93637.72
2023-03-26T11:29:03.730Z,93629.63
2023-03-26T11:32:12.819Z,93624.13
2023-03-26T11:34:44.308Z,93625.41
2023-03-26T11:37:20.278Z,93630.91
2023-03-26T11:39:51.097Z,93649.75
2023-03-26T11:42:19.917Z,93645.69
2023-03-26T11:44:57.484Z,93636.16
2023-03-26T11:47:43.920Z,93629.16
2023-03-26T11:50:15.675Z,93610.41
2023-03-26T11:52:47.949Z,93593.19
2023-03-26T11:55:16.085Z,93594.31
2023-03-26T11:57:46.473Z,93601.53
2023-03-26T12:00:18.573Z,93569.97
2023-03-26T12:02:46.108Z,93550.31
2023-03-26T12:05:30.801Z,93538.13
2023-03-26T12:07:59.667Z,93554.31
2023-03-26T12:10:37.078Z,93522.22
2023-03-26T12:13:25.439Z,93521.84
2023-03-26T12:15:52.243Z,93510.44
2023-03-26T12:18:23.763Z,93499.53
2023-03-26T12:21:01.821Z,93507.84
2023-03-26T12:23:58.497Z,93517.88
2023-03-26T12:26:41.818Z,93525.34
2023-03-26T12:29:13.319Z,93517.56
2023-03-26T12:32:13.356Z,93535.72
2023-03-26T12:34:40.157Z,93510.81
2023-03-26T12:37:07.861Z,93490.72
2023-03-26T12:40:09.107Z,93484.75
2023-03-26T12:44:48.980Z,93474.88
2023-03-26T12:45:23.459Z,93494.09
2023-03-26T12:47:57.631Z,93501.88
2023-03-26T12:50:59.698Z,93520.81
2023-03-26T12:53:54.206Z,93564.56
2023-03-26T12:56:30.875Z,93561.03
2023-03-26T12:59:02.141Z,93567.50
2023-03-26T13:02:06.002Z,93561.69
2023-03-26T13:05:07.010Z,93613.06
2023-03-26T13:08:21.710Z,93630.50
2023-03-26T13:11:12.824Z,93625.34
2023-03-26T13:14:08.336Z,93579.06
2023-03-26T13:16:45.627Z,93570.25
2023-03-26T13:19:29.105Z,93550.94
2023-03-26T13:22:07.767Z,93543.50
2023-03-26T13:24:46.848Z,93537.06
2023-03-26T13:27:30.476Z,93556.59
2023-03-26T13:30:21.262Z,93572.88
2023-03-26T13:33:25.177Z,93572.28
2023-03-26T13:36:23.342Z,93560.91
2023-03-26T13:39:48.388Z,93564.75
2023-03-26T13:42:37.086Z,93572.59
2023-03-26T13:45:49.101Z,93571.22
2023-03-26T13:48:22.126Z,93570.84
2023-03-26T13:51:04.434Z,93561.72
2023-03-26T13:53:47.734Z,93568.16
2023-03-26T13:56:16.180Z,93566.50
2023-03-26T13:59:19.250Z,93566.28
2023-03-26T14:01:59.560Z,93563.13
2023-03-26T14:04:33.401Z,93572.09
2023-03-26T14:07:27.449Z,93568.38
2023-03-26T14:10:06.429Z,93563.41
2023-03-26T14:12:46.967Z,93581.06
2023-03-26T14:15:17.495Z,93579.56
2023-03-26T14:17:53.780Z,93594.81
2023-03-26T14:20:46.324Z,93590.22
2023-03-26T14:23:39.178Z,93584.63
2023-03-26T14:26:23.098Z,93588.69
2023-03-26T14:29:17.456Z,93587.41
2023-03-26T14:32:14.964Z,93588.41
2023-03-26T14:35:09.839Z,93578.75
2023-03-26T14:37:58.377Z,93581.25
2023-03-26T14:40:29.733Z,93585.50
2023-03-26T14:43:30.810Z,93586.59
2023-03-26T14:46:16.887Z,93592.41
2023-03-26T14:48:58.334Z,93586.13
2023-03-26T14:51:55.789Z,93593.78
2023-03-26T14:54:24.509Z,93592.09
2023-03-26T14:57:29.176Z,93594.59
2023-03-26T15:00:29.707Z,93586.78
2023-03-26T15:03:31.556Z,93596.50
2023-03-26T15:06:27.486Z,93596.84
2023-03-26T15:09:03.353Z,93580.06
2023-03-26T15:11:35.465Z,93583.66
2023-03-26T15:14:20.711Z,93584.69
2023-03-26T15:17:38.725Z,93579.72
2023-03-26T15:20:50.115Z,93580.34
2023-03-26T15:23:38.708Z,93579.06
2023-03-26T15:26:27.804Z,93579.28
2023-03-26T15:29:12.865Z,93576.78
2023-03-26T15:31:48.639Z,93560.63
2023-03-26T15:34:42.899Z,93562.28
2023-03-26T15:37:34.410Z,93564.53
2023-03-26T15:40:40.195Z,93560.41
2023-03-26T15:43:16.916Z,93559.13
2023-03-26T15:46:11.787Z,93560.88
2023-03-26T15:48:51.685Z,93555.66
2023-03-26T15:51:47.117Z,93542.13
2023-03-26T15:54:31.658Z,93547.13
2023-03-26T15:57:17.355Z,93537.78
2023-03-26T15:59:58.922Z,93534.66
2023-03-26T16:02:43.478Z,93534.38
2023-03-26T16:05:19.738Z,93529.34
2023-03-26T16:07:49.442Z,93540.75
2023-03-26T16:10:33.957Z,93530.28
2023-03-26T16:13:22.382Z,93530.38
2023-03-26T16:15:56.523Z,93520.97
2023-03-26T16:18:42.848Z,93523.00
2023-03-26T16:21:31.994Z,93517.13
2023-03-26T16:24:12.313Z,93513.25
2023-03-26T16:26:51.139Z,93515.88
2023-03-26T16:29:21.289Z,93506.09
2023-03-26T16:32:25.472Z,93503.03
2023-03-26T16:34:57.017Z,93504.66
2023-03-26T16:37:39.972Z,93492.03
2023-03-26T16:40:19.284Z,93493.56
2023-03-26T16:43:04.830Z,93496.19
2023-03-26T16:45:46.091Z,93484.94
2023-03-26T16:48:36.284Z,93474.00
2023-03-26T16:51:12.512Z,93473.47
2023-03-26T16:54:17.524Z,93466.34
2023-03-26T16:57:09.255Z,93471.88
2023-03-26T17:00:12.828Z,93465.91
2023-03-26T17:03:17.870Z,93474.31
2023-03-26T17:06:02.433Z,93465.06
2023-03-26T17:09:05.564Z,93468.44
2023-03-26T17:11:54.802Z,93467.94
2023-03-26T17:14:30.718Z,93458.28
2023-03-26T17:17:26.884Z,93468.97
2023-03-26T17:20:30.939Z,93458.97
2023-03-26T17:23:09.307Z,93465.44
2023-03-26T17:26:14.291Z,93458.53
2023-03-26T17:29:17.616Z,93454.34
2023-03-26T17:32:03.422Z,93451.50
2023-03-26T17:34:42.843Z,93449.38
2023-03-26T17:37:31.670Z,93453.44
2023-03-26T17:40:10.218Z,93450.72
2023-03-26T17:42:40.143Z,93451.50
2023-03-26T17:45:21.908Z,93443.53
2023-03-26T17:47:58.457Z,93441.38
2023-03-26T17:50:53.183Z,93443.56
2023-03-26T17:53:30.270Z,93443.41
2023-03-26T17:56:16.556Z,93438.13
2023-03-26T17:58:47.326Z,93438.84
2023-03-26T18:01:36.220Z,93438.63
2023-03-26T18:04:13.085Z,93427.53
2023-03-26T18:06:58.723Z,93422.09
2023-03-26T18:10:07.562Z,93432.31
2023-03-26T18:12:38.462Z,93437.69
2023-03-26T18:15:31.762Z,93431.13
2023-03-26T18:18:11.205Z,93435.66
2023-03-26T18:20:37.911Z,93439.78
2023-03-26T18:23:28.677Z,93458.28
2023-03-26T18:25:57.343Z,93473.72
2023-03-26T18:28:35.400Z,93482.97
2023-03-26T18:31:29.530Z,93489.91
2023-03-26T18:34:02.558Z,93479.22
2023-03-26T18:36:29.442Z,93484.84
2023-03-26T18:39:01.915Z,93490.44
2023-03-26T18:41:34.772Z,93484.16
2023-03-26T18:44:02.508Z,93475.53
2023-03-26T18:46:29.791Z,93484.63
2023-03-26T18:48:56.851Z,93481.91
2023-03-26T18:51:25.942Z,93481.41
2023-03-26T18:53:55.416Z,93478.50
2023-03-26T18:56:46.153Z,93471.09
2023-03-26T18:59:23.830Z,93473.94
2023-03-26T19:01:53.869Z,93469.34
2023-03-26T19:04:25.182Z,93476.06
2023-03-26T19:06:52.770Z,93466.66
2023-03-26T19:09:31.006Z,93458.75
2023-03-26T19:12:07.764Z,93463.13
2023-03-26T19:14:50.473Z,93461.25
2023-03-26T19:17:17.737Z,93465.47
2023-03-26T19:19:46.638Z,93456.56
2023-03-26T19:22:14.926Z,93442.03
2023-03-26T19:24:41.665Z,93452.78
2023-03-26T19:27:08.367Z,93451.91
2023-03-26T19:29:35.205Z,93441.09
2023-03-26T19:32:31.190Z,93433.38
2023-03-26T19:35:17.921Z,93435.28
2023-03-26T19:37:51.199Z,93432.63
2023-03-26T19:40:23.794Z,93429.09
2023-03-26T19:42:51.678Z,93422.75
2023-03-26T19:45:19.678Z,93431.78
2023-03-26T19:47:50.552Z,93423.81
2023-03-26T19:51:00.941Z,93426.59
2023-03-26T19:53:37.067Z,93430.47
2023-03-26T19:56:14.798Z,93438.13
2023-03-26T19:58:45.056Z,93441.25
2023-03-26T20:01:17.478Z,93440.03
2023-03-26T20:03:45.388Z,93435.25
2023-03-26T20:06:12.942Z,93431.34
2023-03-26T20:08:39.664Z,93431.19
2023-03-26T20:11:12.272Z,93428.94
2023-03-26T20:13:39.406Z,93431.88
2023-03-26T20:16:26.618Z,93433.56
2023-03-26T20:18:53.425Z,93435.97
2023-03-26T20:21:20.764Z,93437.47
2023-03-26T20:23:47.668Z,93444.34
2023-03-26T20:26:15.806Z,93441.41
2023-03-26T20:28:47.830Z,93452.56
2023-03-26T20:31:20.414Z,93446.75
2023-03-26T20:33:49.038Z,93444.75
2023-03-26T20:36:33.705Z,93450.59
2023-03-26T20:39:06.232Z,93443.25
2023-03-26T20:41:33.684Z,93444.53
2023-03-26T20:44:01.081Z,93451.50
2023-03-26T20:46:30.948Z,93447.81
2023-03-26T20:49:00.049Z,93460.22
2023-03-26T20:51:27.320Z,93468.81
2023-03-26T20:53:55.232Z,93463.44
2023-03-26T20:56:24.720Z,93459.47
2023-03-26T20:59:03.466Z,93462.75
2023-03-26T21:01:35.281Z,93473.38
2023-03-26T21:04:02.398Z,93475.63
2023-03-26T21:06:29.194Z,93474.09
2023-03-26T21:08:56.602Z,93477.31
2023-03-26T21:11:29.163Z,93479.34
2023-03-26T21:14:06.189Z,93475.72
2023-03-26T21:16:33.182Z,93481.44
2023-03-26T21:19:00.917Z,93483.00
2023-03-26T21:21:46.683Z,93497.69
2023-03-26T21:24:42.729Z,93499.84
2023-03-26T21:27:15.469Z,93508.97
2023-03-26T21:29:42.561Z,93511.44
2023-03-26T21:32:11.156Z,93509.56
2023-03-26T21:34:44.901Z,93513.84
2023-03-26T21:37:16.196Z,93515.97
2023-03-26T21:39:44.724Z,93527.72
2023-03-26T21:42:13.375Z,93526.53
2023-03-26T21:44:40.370Z,93524.78
2023-03-26T21:47:09.770Z,93536.06
2023-03-26T21:49:37.529Z,93537.31
2023-03-26T21:52:05.183Z,93534.72
2023-03-26T21:54:33.781Z,93528.81
2023-03-26T21:57:26.811Z,93531.75
2023-03-26T22:00:06.107Z,93535.94
2023-03-26T22:02:51.874Z,93536.66
2023-03-26T22:06:03.407Z,93533.50
2023-03-26T22:08:38.471Z,93553.03
2023-03-26T22:11:07.353Z,93552.91
2023-03-26T22:13:34.026Z,93555.19
2023-03-26T22:16:05.378Z,93549.78
2023-03-26T22:18:33.654Z,93552.28
2023-03-26T22:21:05.004Z,93559.78
2023-03-26T22:23:31.966Z,93559.72
2023-03-26T22:26:02.272Z,93573.28
2023-03-26T22:28:30.948Z,93579.06
2023-03-26T22:31:05.212Z,93580.03
2023-03-26T22:33:32.277Z,93586.53
2023-03-26T22:36:00.252Z,93583.53
2023-03-26T22:38:28.347Z,93604.00
2023-03-26T22:40:57.660Z,93617.53
2023-03-26T22:43:27.773Z,93634.13
2023-03-26T22:45:54.864Z,93627.13
2023-03-26T22:48:22.611Z,93624.53
2023-03-26T22:51:03.488Z,93635.81
2023-03-26T22:53:31.058Z,93631.25
2023-03-26T22:55:58.761Z,93630.47
2023-03-26T22:58:25.828Z,93636.28
2023-03-26T23:00:52.723Z,93651.88
2023-03-26T23:03:20.813Z,93646.88
2023-03-26T23:06:06.417Z,93632.13
2023-03-26T23:08:33.594Z,93638.91
2023-03-26T23:11:01.835Z,93651.56
2023-03-26T23:13:28.637Z,93654.38
2023-03-26T23:16:00.194Z,93652.59
2023-03-26T23:18:28.384Z,93653.75
2023-03-26T23:20:56.691Z,93656.09
2023-03-26T23:23:30.477Z,93657.69
2023-03-26T23:26:04.063Z,93673.41
2023-03-26T23:28:32.801Z,93672.44
2023-03-26T23:31:04.436Z,93685.16
2023-03-26T23:33:32.953Z,93691.09
2023-03-26T23:35:59.890Z,93698.06
2023-03-26T23:38:27.786Z,93696.78
2023-03-26T23:41:13.975Z,93702.72
2023-03-26T23:43:40.764Z,93706.81
2023-03-26T23:46:23.325Z,93704.88
2023-03-26T23:48:51.156Z,93714.28
2023-03-26T23:51:18.838Z,93718.84
2023-03-26T23:53:45.984Z,93722.84
2023-03-26T23:56:12.802Z,93722.59
2023-03-26T23:58:39.953Z,93730.81
